sensor_id;sensor_type;location;lat;lon;timestamp;P1;P2;P0
80643;PMS5003;70010;60.224;24.712;2024-02-15T00:00:07;37;26;
80643;PMS5003;70010;60.224;24.712;2024-02-15T00:02:32;49;36;
80643;PMS5003;70010;60.224;24.712;2024-02-15T00:04:57;44;31;
80643;PMS5003;70010;60.224;24.712;2024-02-15T00:07:22;40;32;
80643;PMS5003;70010;60.224;24.712;2024-02-15T00:09:48;49;33;
80643;PMS5003;70010;60.224;24.712;2024-02-15T00:12:13;38;32;
80643;PMS5003;70010;60.224;24.712;2024-02-15T00:14:38;43;27;
80643;PMS5003;70010;60.224;24.712;2024-02-15T00:17:04;47;33;
80643;PMS5003;70010;60.224;24.712;2024-02-15T00:19:29;46;32;
80643;PMS5003;70010;60.224;24.712;2024-02-15T00:21:54;34;28;
80643;PMS5003;70010;60.224;24.712;2024-02-15T00:24:19;37;29;
80643;PMS5003;70010;60.224;24.712;2024-02-15T00:26:45;43;28;
80643;PMS5003;70010;60.224;24.712;2024-02-15T00:29:10;37;26;
80643;PMS5003;70010;60.224;24.712;2024-02-15T00:31:35;38;27;
80643;PMS5003;70010;60.224;24.712;2024-02-15T00:34:01;35;31;
80643;PMS5003;70010;60.224;24.712;2024-02-15T00:36:26;47;27;
80643;PMS5003;70010;60.224;24.712;2024-02-15T00:38:51;44;34;
80643;PMS5003;70010;60.224;24.712;2024-02-15T00:41:17;41;32;
80643;PMS5003;70010;60.224;24.712;2024-02-15T00:43:42;53;34;
80643;PMS5003;70010;60.224;24.712;2024-02-15T00:46:08;37;31;
80643;PMS5003;70010;60.224;24.712;2024-02-15T00:48:33;43;29;
80643;PMS5003;70010;60.224;24.712;2024-02-15T00:50:59;53;31;
80643;PMS5003;70010;60.224;24.712;2024-02-15T00:53:24;53;35;
80643;PMS5003;70010;60.224;24.712;2024-02-15T00:55:49;36;31;
80643;PMS5003;70010;60.224;24.712;2024-02-15T00:58:15;39;27;
80643;PMS5003;70010;60.224;24.712;2024-02-15T01:00:41;33;27;
80643;PMS5003;70010;60.224;24.712;2024-02-15T01:03:06;48;30;
80643;PMS5003;70010;60.224;24.712;2024-02-15T01:05:31;36;27;
80643;PMS5003;70010;60.224;24.712;2024-02-15T01:07:56;40;27;
80643;PMS5003;70010;60.224;24.712;2024-02-15T01:10:22;38;29;
80643;PMS5003;70010;60.224;24.712;2024-02-15T01:12:48;46;29;
80643;PMS5003;70010;60.224;24.712;2024-02-15T01:15:13;50;33;
80643;PMS5003;70010;60.224;24.712;2024-02-15T01:17:39;50;38;
80643;PMS5003;70010;60.224;24.712;2024-02-15T01:20:05;48;34;
80643;PMS5003;70010;60.224;24.712;2024-02-15T01:22:30;38;30;
80643;PMS5003;70010;60.224;24.712;2024-02-15T01:24:56;44;32;
80643;PMS5003;70010;60.224;24.712;2024-02-15T01:27:21;55;38;
80643;PMS5003;70010;60.224;24.712;2024-02-15T01:29:47;46;35;
80643;PMS5003;70010;60.224;24.712;2024-02-15T01:32:13;52;32;
80643;PMS5003;70010;60.224;24.712;2024-02-15T01:34:40;49;31;
80643;PMS5003;70010;60.224;24.712;2024-02-15T01:37:04;43;34;
80643;PMS5003;70010;60.224;24.712;2024-02-15T01:39:30;47;36;
80643;PMS5003;70010;60.224;24.712;2024-02-15T01:41:55;40;35;
80643;PMS5003;70010;60.224;24.712;2024-02-15T01:44:21;56;33;
80643;PMS5003;70010;60.224;24.712;2024-02-15T01:46:46;51;34;
80643;PMS5003;70010;60.224;24.712;2024-02-15T01:49:11;46;33;
80643;PMS5003;70010;60.224;24.712;2024-02-15T01:51:37;57;38;
80643;PMS5003;70010;60.224;24.712;2024-02-15T01:54:02;60;40;
80643;PMS5003;70010;60.224;24.712;2024-02-15T01:56:27;60;36;
80643;PMS5003;70010;60.224;24.712;2024-02-15T01:58:53;49;36;
80643;PMS5003;70010;60.224;24.712;2024-02-15T02:01:19;58;38;
80643;PMS5003;70010;60.224;24.712;2024-02-15T02:03:44;50;37;
80643;PMS5003;70010;60.224;24.712;2024-02-15T02:06:09;51;39;
80643;PMS5003;70010;60.224;24.712;2024-02-15T02:08:34;55;40;
80643;PMS5003;70010;60.224;24.712;2024-02-15T02:11:00;67;41;
80643;PMS5003;70010;60.224;24.712;2024-02-15T02:13:25;44;36;
80643;PMS5003;70010;60.224;24.712;2024-02-15T02:15:51;61;43;
80643;PMS5003;70010;60.224;24.712;2024-02-15T02:18:17;61;42;
80643;PMS5003;70010;60.224;24.712;2024-02-15T02:20:42;59;40;
80643;PMS5003;70010;60.224;24.712;2024-02-15T02:23:09;51;35;
80643;PMS5003;70010;60.224;24.712;2024-02-15T02:25:33;50;40;
80643;PMS5003;70010;60.224;24.712;2024-02-15T02:27:58;65;44;
80643;PMS5003;70010;60.224;24.712;2024-02-15T02:30:24;59;42;
80643;PMS5003;70010;60.224;24.712;2024-02-15T02:32:49;50;38;
80643;PMS5003;70010;60.224;24.712;2024-02-15T02:35:14;56;40;
80643;PMS5003;70010;60.224;24.712;2024-02-15T02:37:39;48;35;
80643;PMS5003;70010;60.224;24.712;2024-02-15T02:40:05;43;37;
80643;PMS5003;70010;60.224;24.712;2024-02-15T02:42:30;58;39;
80643;PMS5003;70010;60.224;24.712;2024-02-15T02:44:55;56;40;
80643;PMS5003;70010;60.224;24.712;2024-02-15T02:47:21;59;39;
80643;PMS5003;70010;60.224;24.712;2024-02-15T02:49:46;64;40;
80643;PMS5003;70010;60.224;24.712;2024-02-15T02:52:11;59;42;
80643;PMS5003;70010;60.224;24.712;2024-02-15T02:54:37;72;41;
80643;PMS5003;70010;60.224;24.712;2024-02-15T02:57:02;60;43;
80643;PMS5003;70010;60.224;24.712;2024-02-15T02:59:28;61;35;
80643;PMS5003;70010;60.224;24.712;2024-02-15T03:01:54;61;36;
80643;PMS5003;70010;60.224;24.712;2024-02-15T03:04:19;49;36;
80643;PMS5003;70010;60.224;24.712;2024-02-15T03:06:44;55;42;
80643;PMS5003;70010;60.224;24.712;2024-02-15T03:09:10;73;46;
80643;PMS5003;70010;60.224;24.712;2024-02-15T03:11:35;46;35;
80643;PMS5003;70010;60.224;24.712;2024-02-15T03:14:00;64;39;
80643;PMS5003;70010;60.224;24.712;2024-02-15T03:16:26;61;38;
80643;PMS5003;70010;60.224;24.712;2024-02-15T03:18:51;66;44;
80643;PMS5003;70010;60.224;24.712;2024-02-15T03:21:17;45;35;
80643;PMS5003;70010;60.224;24.712;2024-02-15T03:23:43;65;43;
80643;PMS5003;70010;60.224;24.712;2024-02-15T03:26:08;76;43;
80643;PMS5003;70010;60.224;24.712;2024-02-15T03:28:33;43;35;
80643;PMS5003;70010;60.224;24.712;2024-02-15T03:30:58;63;42;
80643;PMS5003;70010;60.224;24.712;2024-02-15T03:33:24;64;43;
80643;PMS5003;70010;60.224;24.712;2024-02-15T03:35:49;48;34;
80643;PMS5003;70010;60.224;24.712;2024-02-15T03:38:14;60;41;
80643;PMS5003;70010;60.224;24.712;2024-02-15T03:40:40;65;45;
80643;PMS5003;70010;60.224;24.712;2024-02-15T03:43:05;59;41;
80643;PMS5003;70010;60.224;24.712;2024-02-15T03:45:31;65;39;
80643;PMS5003;70010;60.224;24.712;2024-02-15T03:47:57;59;42;
80643;PMS5003;70010;60.224;24.712;2024-02-15T03:50:22;62;41;
80643;PMS5003;70010;60.224;24.712;2024-02-15T03:52:47;77;44;
80643;PMS5003;70010;60.224;24.712;2024-02-15T03:55:13;66;39;
80643;PMS5003;70010;60.224;24.712;2024-02-15T03:57:38;48;38;
80643;PMS5003;70010;60.224;24.712;2024-02-15T04:00:04;50;36;
80643;PMS5003;70010;60.224;24.712;2024-02-15T04:02:30;60;38;
80643;PMS5003;70010;60.224;24.712;2024-02-15T04:04:55;62;45;
80643;PMS5003;70010;60.224;24.712;2024-02-15T04:07:20;57;40;
80643;PMS5003;70010;60.224;24.712;2024-02-15T04:09:45;57;45;
80643;PMS5003;70010;60.224;24.712;2024-02-15T04:12:11;74;47;
80643;PMS5003;70010;60.224;24.712;2024-02-15T04:14:36;59;43;
80643;PMS5003;70010;60.224;24.712;2024-02-15T04:17:01;69;45;
80643;PMS5003;70010;60.224;24.712;2024-02-15T04:19:26;77;46;
80643;PMS5003;70010;60.224;24.712;2024-02-15T04:21:52;74;51;
80643;PMS5003;70010;60.224;24.712;2024-02-15T04:24:17;65;40;
80643;PMS5003;70010;60.224;24.712;2024-02-15T04:26:43;49;39;
80643;PMS5003;70010;60.224;24.712;2024-02-15T04:29:08;65;42;
80643;PMS5003;70010;60.224;24.712;2024-02-15T04:31:34;48;39;
80643;PMS5003;70010;60.224;24.712;2024-02-15T04:34:00;73;50;
80643;PMS5003;70010;60.224;24.712;2024-02-15T04:36:25;71;45;
80643;PMS5003;70010;60.224;24.712;2024-02-15T04:38:50;59;43;
80643;PMS5003;70010;60.224;24.712;2024-02-15T04:41:15;50;37;
80643;PMS5003;70010;60.224;24.712;2024-02-15T04:43:41;46;35;
80643;PMS5003;70010;60.224;24.712;2024-02-15T04:46:06;72;47;
80643;PMS5003;70010;60.224;24.712;2024-02-15T04:48:32;68;37;
80643;PMS5003;70010;60.224;24.712;2024-02-15T04:50:57;62;41;
80643;PMS5003;70010;60.224;24.712;2024-02-15T04:53:22;60;44;
80643;PMS5003;70010;60.224;24.712;2024-02-15T04:55:48;53;42;
80643;PMS5003;70010;60.224;24.712;2024-02-15T04:58:13;56;33;
80643;PMS5003;70010;60.224;24.712;2024-02-15T05:00:39;47;35;
80643;PMS5003;70010;60.224;24.712;2024-02-15T05:03:05;67;43;
80643;PMS5003;70010;60.224;24.712;2024-02-15T05:05:30;52;40;
80643;PMS5003;70010;60.224;24.712;2024-02-15T05:07:55;51;39;
80643;PMS5003;70010;60.224;24.712;2024-02-15T05:10:21;61;39;
80643;PMS5003;70010;60.224;24.712;2024-02-15T05:12:47;55;40;
80643;PMS5003;70010;60.224;24.712;2024-02-15T05:15:13;51;34;
80643;PMS5003;70010;60.224;24.712;2024-02-15T05:17:38;50;39;
80643;PMS5003;70010;60.224;24.712;2024-02-15T05:20:03;47;36;
80643;PMS5003;70010;60.224;24.712;2024-02-15T05:22:29;59;37;
80643;PMS5003;70010;60.224;24.712;2024-02-15T05:24:55;49;37;
80643;PMS5003;70010;60.224;24.712;2024-02-15T05:27:21;55;40;
80643;PMS5003;70010;60.224;24.712;2024-02-15T05:29:46;49;36;
80643;PMS5003;70010;60.224;24.712;2024-02-15T05:32:11;47;40;
80643;PMS5003;70010;60.224;24.712;2024-02-15T05:34:37;47;39;
80643;PMS5003;70010;60.224;24.712;2024-02-15T05:37:02;60;34;
80643;PMS5003;70010;60.224;24.712;2024-02-15T05:39:28;65;44;
80643;PMS5003;70010;60.224;24.712;2024-02-15T05:41:54;51;40;
80643;PMS5003;70010;60.224;24.712;2024-02-15T05:44:19;56;38;
80643;PMS5003;70010;60.224;24.712;2024-02-15T05:46:44;65;36;
80643;PMS5003;70010;60.224;24.712;2024-02-15T05:49:09;49;39;
80643;PMS5003;70010;60.224;24.712;2024-02-15T05:51:34;63;37;
80643;PMS5003;70010;60.224;24.712;2024-02-15T05:54:00;55;38;
80643;PMS5003;70010;60.224;24.712;2024-02-15T05:56:26;56;37;
80643;PMS5003;70010;60.224;24.712;2024-02-15T05:58:51;50;38;
80643;PMS5003;70010;60.224;24.712;2024-02-15T06:01:16;54;37;
80643;PMS5003;70010;60.224;24.712;2024-02-15T06:03:42;59;38;
80643;PMS5003;70010;60.224;24.712;2024-02-15T06:06:07;53;37;
80643;PMS5003;70010;60.224;24.712;2024-02-15T06:08:33;60;45;
80643;PMS5003;70010;60.224;24.712;2024-02-15T06:10:58;60;40;
80643;PMS5003;70010;60.224;24.712;2024-02-15T06:13:23;58;37;
80643;PMS5003;70010;60.224;24.712;2024-02-15T06:15:49;33;28;
80643;PMS5003;70010;60.224;24.712;2024-02-15T06:18:15;51;36;
80643;PMS5003;70010;60.224;24.712;2024-02-15T06:20:40;51;36;
80643;PMS5003;70010;60.224;24.712;2024-02-15T06:23:06;59;38;
80643;PMS5003;70010;60.224;24.712;2024-02-15T06:25:31;57;37;
80643;PMS5003;70010;60.224;24.712;2024-02-15T06:27:57;47;31;
80643;PMS5003;70010;60.224;24.712;2024-02-15T06:30:22;54;35;
80643;PMS5003;70010;60.224;24.712;2024-02-15T06:32:47;52;33;
80643;PMS5003;70010;60.224;24.712;2024-02-15T06:35:15;55;39;
80643;PMS5003;70010;60.224;24.712;2024-02-15T06:37:39;54;34;
80643;PMS5003;70010;60.224;24.712;2024-02-15T06:40:04;52;32;
80643;PMS5003;70010;60.224;24.712;2024-02-15T06:42:29;56;29;
80643;PMS5003;70010;60.224;24.712;2024-02-15T06:44:55;43;33;
80643;PMS5003;70010;60.224;24.712;2024-02-15T06:47:20;59;37;
80643;PMS5003;70010;60.224;24.712;2024-02-15T06:49:46;54;39;
80643;PMS5003;70010;60.224;24.712;2024-02-15T06:52:11;46;39;
80643;PMS5003;70010;60.224;24.712;2024-02-15T06:54:37;45;38;
80643;PMS5003;70010;60.224;24.712;2024-02-15T06:57:02;47;35;
80643;PMS5003;70010;60.224;24.712;2024-02-15T06:59:27;50;40;
80643;PMS5003;70010;60.224;24.712;2024-02-15T07:01:52;42;29;
80643;PMS5003;70010;60.224;24.712;2024-02-15T07:04:17;54;31;
80643;PMS5003;70010;60.224;24.712;2024-02-15T07:06:43;48;32;
80643;PMS5003;70010;60.224;24.712;2024-02-15T07:09:08;38;32;
80643;PMS5003;70010;60.224;24.712;2024-02-15T07:11:34;49;28;
80643;PMS5003;70010;60.224;24.712;2024-02-15T07:14:00;53;37;
80643;PMS5003;70010;60.224;24.712;2024-02-15T07:16:25;52;39;
80643;PMS5003;70010;60.224;24.712;2024-02-15T07:18:50;37;29;
80643;PMS5003;70010;60.224;24.712;2024-02-15T07:21:16;47;34;
80643;PMS5003;70010;60.224;24.712;2024-02-15T07:23:41;33;30;
80643;PMS5003;70010;60.224;24.712;2024-02-15T07:26:07;45;34;
80643;PMS5003;70010;60.224;24.712;2024-02-15T07:28:32;57;33;
80643;PMS5003;70010;60.224;24.712;2024-02-15T07:30:57;51;34;
80643;PMS5003;70010;60.224;24.712;2024-02-15T07:33:23;36;29;
80643;PMS5003;70010;60.224;24.712;2024-02-15T07:35:48;53;34;
80643;PMS5003;70010;60.224;24.712;2024-02-15T07:38:14;47;28;
80643;PMS5003;70010;60.224;24.712;2024-02-15T07:40:39;53;35;
80643;PMS5003;70010;60.224;24.712;2024-02-15T07:43:04;32;27;
80643;PMS5003;70010;60.224;24.712;2024-02-15T07:45:30;41;27;
80643;PMS5003;70010;60.224;24.712;2024-02-15T07:47:55;45;33;
80643;PMS5003;70010;60.224;24.712;2024-02-15T07:50:20;40;30;
80643;PMS5003;70010;60.224;24.712;2024-02-15T07:52:46;39;31;
80643;PMS5003;70010;60.224;24.712;2024-02-15T07:55:12;42;30;
80643;PMS5003;70010;60.224;24.712;2024-02-15T07:57:37;53;30;
80643;PMS5003;70010;60.224;24.712;2024-02-15T08:00:02;45;32;
80643;PMS5003;70010;60.224;24.712;2024-02-15T08:02:28;43;30;
80643;PMS5003;70010;60.224;24.712;2024-02-15T08:04:54;44;29;
80643;PMS5003;70010;60.224;24.712;2024-02-15T08:07:19;38;28;
80643;PMS5003;70010;60.224;24.712;2024-02-15T08:09:44;30;26;
80643;PMS5003;70010;60.224;24.712;2024-02-15T08:12:10;37;28;
80643;PMS5003;70010;60.224;24.712;2024-02-15T08:14:35;30;25;
80643;PMS5003;70010;60.224;24.712;2024-02-15T08:17:00;42;31;
80643;PMS5003;70010;60.224;24.712;2024-02-15T08:19:25;43;26;
80643;PMS5003;70010;60.224;24.712;2024-02-15T08:21:51;30;25;
80643;PMS5003;70010;60.224;24.712;2024-02-15T08:24:16;44;26;
80643;PMS5003;70010;60.224;24.712;2024-02-15T08:26:42;29;21;
80643;PMS5003;70010;60.224;24.712;2024-02-15T08:29:07;32;24;
80643;PMS5003;70010;60.224;24.712;2024-02-15T08:31:33;34;26;
80643;PMS5003;70010;60.224;24.712;2024-02-15T08:33:58;35;24;
80643;PMS5003;70010;60.224;24.712;2024-02-15T08:36:24;34;26;
80643;PMS5003;70010;60.224;24.712;2024-02-15T08:38:49;35;25;
80643;PMS5003;70010;60.224;24.712;2024-02-15T08:41:14;27;23;
80643;PMS5003;70010;60.224;24.712;2024-02-15T08:43:40;30;23;
80643;PMS5003;70010;60.224;24.712;2024-02-15T08:46:05;37;24;
80643;PMS5003;70010;60.224;24.712;2024-02-15T08:48:31;23;19;
80643;PMS5003;70010;60.224;24.712;2024-02-15T08:50:57;22;17;
80643;PMS5003;70010;60.224;24.712;2024-02-15T08:53:23;28;21;
80643;PMS5003;70010;60.224;24.712;2024-02-15T08:55:48;24;22;
80643;PMS5003;70010;60.224;24.712;2024-02-15T08:58:14;27;23;
80643;PMS5003;70010;60.224;24.712;2024-02-15T09:00:39;19;19;
80643;PMS5003;70010;60.224;24.712;2024-02-15T09:03:05;21;18;
80643;PMS5003;70010;60.224;24.712;2024-02-15T09:05:31;20;17;
80643;PMS5003;70010;60.224;24.712;2024-02-15T09:07:56;25;17;
80643;PMS5003;70010;60.224;24.712;2024-02-15T09:10:22;22;19;
80643;PMS5003;70010;60.224;24.712;2024-02-15T09:12:47;22;13;
80643;PMS5003;70010;60.224;24.712;2024-02-15T09:15:13;29;17;
80643;PMS5003;70010;60.224;24.712;2024-02-15T09:17:38;18;12;
80643;PMS5003;70010;60.224;24.712;2024-02-15T09:20:06;29;20;
80643;PMS5003;70010;60.224;24.712;2024-02-15T09:22:29;24;14;
80643;PMS5003;70010;60.224;24.712;2024-02-15T09:24:54;20;16;
80643;PMS5003;70010;60.224;24.712;2024-02-15T09:27:20;23;15;
80643;PMS5003;70010;60.224;24.712;2024-02-15T09:29:46;29;16;
80643;PMS5003;70010;60.224;24.712;2024-02-15T09:32:11;14;13;
80643;PMS5003;70010;60.224;24.712;2024-02-15T09:34:37;10;10;
80643;PMS5003;70010;60.224;24.712;2024-02-15T09:37:02;12;10;
80643;PMS5003;70010;60.224;24.712;2024-02-15T09:39:27;10;10;
80643;PMS5003;70010;60.224;24.712;2024-02-15T09:41:53;17;12;
80643;PMS5003;70010;60.224;24.712;2024-02-15T09:44:18;25;11;
80643;PMS5003;70010;60.224;24.712;2024-02-15T09:46:44;11;11;
80643;PMS5003;70010;60.224;24.712;2024-02-15T09:49:10;12;11;
80643;PMS5003;70010;60.224;24.712;2024-02-15T09:51:35;10;9;
80643;PMS5003;70010;60.224;24.712;2024-02-15T09:54:00;11;10;
80643;PMS5003;70010;60.224;24.712;2024-02-15T09:56:25;11;10;
80643;PMS5003;70010;60.224;24.712;2024-02-15T09:58:51;12;9;
80643;PMS5003;70010;60.224;24.712;2024-02-15T10:01:16;19;10;
80643;PMS5003;70010;60.224;24.712;2024-02-15T10:03:41;10;9;
80643;PMS5003;70010;60.224;24.712;2024-02-15T10:06:07;18;12;
80643;PMS5003;70010;60.224;24.712;2024-02-15T10:08:33;16;15;
80643;PMS5003;70010;60.224;24.712;2024-02-15T10:11:05;11;11;
80643;PMS5003;70010;60.224;24.712;2024-02-15T10:13:24;21;16;
80643;PMS5003;70010;60.224;24.712;2024-02-15T10:15:49;11;11;
80643;PMS5003;70010;60.224;24.712;2024-02-15T10:18:14;15;11;
80643;PMS5003;70010;60.224;24.712;2024-02-15T10:20:39;17;14;
80643;PMS5003;70010;60.224;24.712;2024-02-15T10:23:10;12;11;
80643;PMS5003;70010;60.224;24.712;2024-02-15T10:25:30;17;13;
80643;PMS5003;70010;60.224;24.712;2024-02-15T10:30:21;16;12;
80643;PMS5003;70010;60.224;24.712;2024-02-15T10:32:46;20;14;
80643;PMS5003;70010;60.224;24.712;2024-02-15T10:37:37;22;15;
80643;PMS5003;70010;60.224;24.712;2024-02-15T10:40:04;17;15;
80643;PMS5003;70010;60.224;24.712;2024-02-15T10:42:28;22;16;
80643;PMS5003;70010;60.224;24.712;2024-02-15T10:44:54;12;11;
80643;PMS5003;70010;60.224;24.712;2024-02-15T10:47:19;18;15;
80643;PMS5003;70010;60.224;24.712;2024-02-15T10:49:45;18;16;
80643;PMS5003;70010;60.224;24.712;2024-02-15T10:52:10;15;14;
80643;PMS5003;70010;60.224;24.712;2024-02-15T10:54:40;17;16;
80643;PMS5003;70010;60.224;24.712;2024-02-15T10:57:03;16;13;
80643;PMS5003;70010;60.224;24.712;2024-02-15T10:59:28;21;12;
80643;PMS5003;70010;60.224;24.712;2024-02-15T11:01:54;25;17;
80643;PMS5003;70010;60.224;24.712;2024-02-15T11:04:17;15;13;
80643;PMS5003;70010;60.224;24.712;2024-02-15T11:06:43;18;13;
80643;PMS5003;70010;60.224;24.712;2024-02-15T11:09:08;19;16;
80643;PMS5003;70010;60.224;24.712;2024-02-15T11:11:33;18;17;
80643;PMS5003;70010;60.224;24.712;2024-02-15T11:18:50;20;17;
80643;PMS5003;70010;60.224;24.712;2024-02-15T11:21:15;20;15;
80643;PMS5003;70010;60.224;24.712;2024-02-15T11:23:40;27;18;
80643;PMS5003;70010;60.224;24.712;2024-02-15T11:26:08;18;14;
80643;PMS5003;70010;60.224;24.712;2024-02-15T11:30:56;17;16;
80643;PMS5003;70010;60.224;24.712;2024-02-15T11:33:24;30;20;
80643;PMS5003;70010;60.224;24.712;2024-02-15T11:43:03;18;18;
80643;PMS5003;70010;60.224;24.712;2024-02-15T11:45:29;21;16;
80643;PMS5003;70010;60.224;24.712;2024-02-15T11:47:54;29;20;
80643;PMS5003;70010;60.224;24.712;2024-02-15T11:50:20;31;18;
80643;PMS5003;70010;60.224;24.712;2024-02-15T11:52:46;18;15;
80643;PMS5003;70010;60.224;24.712;2024-02-15T11:55:11;24;22;
80643;PMS5003;70010;60.224;24.712;2024-02-15T11:57:37;23;20;
80643;PMS5003;70010;60.224;24.712;2024-02-15T12:00:01;21;19;
80643;PMS5003;70010;60.224;24.712;2024-02-15T12:02:27;16;16;
80643;PMS5003;70010;60.224;24.712;2024-02-15T12:04:53;33;22;
80643;PMS5003;70010;60.224;24.712;2024-02-15T12:07:18;25;21;
80643;PMS5003;70010;60.224;24.712;2024-02-15T12:09:44;20;18;
80643;PMS5003;70010;60.224;24.712;2024-02-15T12:12:09;30;19;
80643;PMS5003;70010;60.224;24.712;2024-02-15T12:14:34;31;21;
80643;PMS5003;70010;60.224;24.712;2024-02-15T12:17:01;22;19;
80643;PMS5003;70010;60.224;24.712;2024-02-15T12:19:25;24;22;
80643;PMS5003;70010;60.224;24.712;2024-02-15T12:21:50;27;18;
80643;PMS5003;70010;60.224;24.712;2024-02-15T12:24:17;25;16;
80643;PMS5003;70010;60.224;24.712;2024-02-15T12:26:42;21;17;
80643;PMS5003;70010;60.224;24.712;2024-02-15T12:29:07;17;14;
80643;PMS5003;70010;60.224;24.712;2024-02-15T12:31:32;30;20;
80643;PMS5003;70010;60.224;24.712;2024-02-15T12:34:01;22;18;
80643;PMS5003;70010;60.224;24.712;2024-02-15T12:36:22;23;20;
80643;PMS5003;70010;60.224;24.712;2024-02-15T12:41:18;21;15;
80643;PMS5003;70010;60.224;24.712;2024-02-15T12:43:39;22;18;
80643;PMS5003;70010;60.224;24.712;2024-02-15T12:46:04;34;21;
80643;PMS5003;70010;60.224;24.712;2024-02-15T12:48:30;32;19;
80643;PMS5003;70010;60.224;24.712;2024-02-15T12:50:55;21;17;
80643;PMS5003;70010;60.224;24.712;2024-02-15T12:53:21;28;17;
80643;PMS5003;70010;60.224;24.712;2024-02-15T12:55:52;32;22;
80643;PMS5003;70010;60.224;24.712;2024-02-15T12:58:12;27;21;
80643;PMS5003;70010;60.224;24.712;2024-02-15T13:00:37;30;20;
80643;PMS5003;70010;60.224;24.712;2024-02-15T13:03:03;32;22;
80643;PMS5003;70010;60.224;24.712;2024-02-15T13:05:27;28;22;
80643;PMS5003;70010;60.224;24.712;2024-02-15T13:10:18;19;17;
80643;PMS5003;70010;60.224;24.712;2024-02-15T13:12:44;19;19;
80643;PMS5003;70010;60.224;24.712;2024-02-15T13:15:10;24;20;
80643;PMS5003;70010;60.224;24.712;2024-02-15T13:17:35;28;19;
80643;PMS5003;70010;60.224;24.712;2024-02-15T13:20:01;31;22;
80643;PMS5003;70010;60.224;24.712;2024-02-15T13:22:26;40;24;
80643;PMS5003;70010;60.224;24.712;2024-02-15T13:24:51;31;21;
80643;PMS5003;70010;60.224;24.712;2024-02-15T13:27:17;28;22;
80643;PMS5003;70010;60.224;24.712;2024-02-15T13:29:43;30;20;
80643;PMS5003;70010;60.224;24.712;2024-02-15T13:32:07;35;23;
80643;PMS5003;70010;60.224;24.712;2024-02-15T13:34:33;36;23;
80643;PMS5003;70010;60.224;24.712;2024-02-15T13:36:58;33;21;
80643;PMS5003;70010;60.224;24.712;2024-02-15T13:39:23;31;21;
80643;PMS5003;70010;60.224;24.712;2024-02-15T13:41:49;33;24;
80643;PMS5003;70010;60.224;24.712;2024-02-15T13:44:15;40;27;
80643;PMS5003;70010;60.224;24.712;2024-02-15T13:46:41;37;22;
80643;PMS5003;70010;60.224;24.712;2024-02-15T13:49:06;32;23;
80643;PMS5003;70010;60.224;24.712;2024-02-15T13:51:32;35;24;
80643;PMS5003;70010;60.224;24.712;2024-02-15T13:53:58;38;25;
80643;PMS5003;70010;60.224;24.712;2024-02-15T13:56:23;36;23;
80643;PMS5003;70010;60.224;24.712;2024-02-15T13:58:48;27;24;
80643;PMS5003;70010;60.224;24.712;2024-02-15T14:01:13;40;27;
80643;PMS5003;70010;60.224;24.712;2024-02-15T14:03:38;31;27;
80643;PMS5003;70010;60.224;24.712;2024-02-15T14:06:04;32;27;
80643;PMS5003;70010;60.224;24.712;2024-02-15T14:08:30;24;19;
80643;PMS5003;70010;60.224;24.712;2024-02-15T14:10:55;32;23;
80643;PMS5003;70010;60.224;24.712;2024-02-15T14:13:20;41;29;
80643;PMS5003;70010;60.224;24.712;2024-02-15T14:15:46;38;32;
80643;PMS5003;70010;60.224;24.712;2024-02-15T14:18:12;36;27;
80643;PMS5003;70010;60.224;24.712;2024-02-15T14:20:37;33;22;
80643;PMS5003;70010;60.224;24.712;2024-02-15T14:23:03;41;33;
80643;PMS5003;70010;60.224;24.712;2024-02-15T14:25:28;47;35;
80643;PMS5003;70010;60.224;24.712;2024-02-15T14:27:53;43;23;
80643;PMS5003;70010;60.224;24.712;2024-02-15T14:30:19;44;29;
80643;PMS5003;70010;60.224;24.712;2024-02-15T14:32:45;35;30;
80643;PMS5003;70010;60.224;24.712;2024-02-15T14:35:10;35;27;
80643;PMS5003;70010;60.224;24.712;2024-02-15T14:37:35;39;31;
80643;PMS5003;70010;60.224;24.712;2024-02-15T14:40:01;41;28;
80643;PMS5003;70010;60.224;24.712;2024-02-15T14:42:26;40;28;
80643;PMS5003;70010;60.224;24.712;2024-02-15T14:44:51;33;30;
80643;PMS5003;70010;60.224;24.712;2024-02-15T14:47:16;39;33;
80643;PMS5003;70010;60.224;24.712;2024-02-15T14:49:42;65;37;
80643;PMS5003;70010;60.224;24.712;2024-02-15T14:52:07;46;33;
80643;PMS5003;70010;60.224;24.712;2024-02-15T14:54:32;43;32;
80643;PMS5003;70010;60.224;24.712;2024-02-15T14:56:58;53;35;
80643;PMS5003;70010;60.224;24.712;2024-02-15T14:59:23;44;31;
80643;PMS5003;70010;60.224;24.712;2024-02-15T15:01:48;34;28;
80643;PMS5003;70010;60.224;24.712;2024-02-15T15:04:14;37;30;
80643;PMS5003;70010;60.224;24.712;2024-02-15T15:06:39;46;35;
80643;PMS5003;70010;60.224;24.712;2024-02-15T15:09:05;45;36;
80643;PMS5003;70010;60.224;24.712;2024-02-15T15:11:31;42;30;
80643;PMS5003;70010;60.224;24.712;2024-02-15T15:13:56;39;31;
80643;PMS5003;70010;60.224;24.712;2024-02-15T15:16:21;46;37;
80643;PMS5003;70010;60.224;24.712;2024-02-15T15:18:46;37;32;
80643;PMS5003;70010;60.224;24.712;2024-02-15T15:21:11;43;33;
80643;PMS5003;70010;60.224;24.712;2024-02-15T15:23:37;44;29;
80643;PMS5003;70010;60.224;24.712;2024-02-15T15:26:03;42;25;
80643;PMS5003;70010;60.224;24.712;2024-02-15T15:28:28;50;28;
80643;PMS5003;70010;60.224;24.712;2024-02-15T15:30:53;52;33;
80643;PMS5003;70010;60.224;24.712;2024-02-15T15:33:19;44;30;
80643;PMS5003;70010;60.224;24.712;2024-02-15T15:35:44;46;35;
80643;PMS5003;70010;60.224;24.712;2024-02-15T15:38:10;37;31;
80643;PMS5003;70010;60.224;24.712;2024-02-15T15:40:35;51;30;
80643;PMS5003;70010;60.224;24.712;2024-02-15T15:43:00;41;28;
80643;PMS5003;70010;60.224;24.712;2024-02-15T15:45:25;50;38;
80643;PMS5003;70010;60.224;24.712;2024-02-15T15:47:51;38;27;
80643;PMS5003;70010;60.224;24.712;2024-02-15T15:50:16;40;27;
80643;PMS5003;70010;60.224;24.712;2024-02-15T15:52:41;47;31;
80643;PMS5003;70010;60.224;24.712;2024-02-15T15:55:07;48;32;
80643;PMS5003;70010;60.224;24.712;2024-02-15T15:57:32;45;29;
80643;PMS5003;70010;60.224;24.712;2024-02-15T15:59:58;47;30;
80643;PMS5003;70010;60.224;24.712;2024-02-15T16:02:23;44;30;
80643;PMS5003;70010;60.224;24.712;2024-02-15T16:04:49;32;25;
80643;PMS5003;70010;60.224;24.712;2024-02-15T16:07:14;41;28;
80643;PMS5003;70010;60.224;24.712;2024-02-15T16:09:40;40;28;
80643;PMS5003;70010;60.224;24.712;2024-02-15T16:12:05;39;28;